Home > Products > Valid Products > TAF

000
FTUS43 KDLH 251903 AAA
TAFBRD
TAF AMD
KBRD 251903Z 2519/2618 09010KT 5SM -RA SCT015 OVC040
      TEMPO 2519/2522 6SM -TSRA OVC015CB
     FM252200 12010KT 5SM -SHRA BR OVC015
      TEMPO 2522/2602 3SM -TSRA BR OVC011CB
     FM260600 12010KT 5SM BR OVC020
     FM261200 20012KT P6SM VCSH BKN040=



000
FTUS43 KDLH 251811 AAA
TAFDLH
TAF AMD
KDLH 251811Z 2518/2618 09010G24KT 1/2SM FG VV002
      TEMPO 2518/2521 2SM BR OVC010
     FM252100 09014G24KT 5SM -RA OVC014
     FM260000 09014G18KT 5SM -RA BR OVC012
      TEMPO 2600/2602 4SM -TSRA OVC010CB
     FM260400 10012KT 4SM -RA BR OVC015
      TEMPO 2604/2608 2SM -TSRA OVC011CB
     FM260800 07008KT 1/2SM FG VCSH OVC005
     FM261400 12010KT 5SM BR VCSH OVC015=



000
FTUS43 KDLH 251218 AAA
TAFHYR
TAF AMD
KHYR 251218Z 2512/2612 02005KT P6SM BKN004
     FM252100 10008KT P6SM VCSH BKN060
     FM260300 11008KT 5SM -RA BR OVC007=



000
FTUS43 KDLH 250158 AAB
TAFBRD
TAF AMD
KBRD 250158Z 2502/2524 07004KT P6SM SCT070 BKN120
     FM250500 08005KT P6SM SCT080
     FM251500 10009KT P6SM SCT120
     FM251700 11010G18KT P6SM VCSH BKN060
     FM251900 11012G18KT 5SM -SHRA BR SCT025 BKN040=



000
FTUS43 KDLH 242345
TAFINL
TAF
KINL 242345Z 2500/2524 03012KT P6SM SCT100
     FM250200 08006KT P6SM SCT080
     FM251500 10011KT P6SM BKN120
     FM251700 11011G18KT P6SM BKN080=



000
FTUS43 KDLH 242345
TAFDLH
TAF
KDLH 242345Z 2500/2524 10010KT P6SM SCT050
     FM250130 09008KT 3SM BR BKN007 OVC015
      TEMPO 2502/2503 1SM BR OVC005
     FM250300 10008KT 5SM BR VCSH OVC012
     FM250600 10007KT 2SM BR OVC008
     FM251500 10012KT P6SM SCT012
     FM251800 10012G18KT P6SM VCSH SCT035 BKN080=



000
FTUS43 KDLH 242345
TAFBRD
TAF
KBRD 242345Z 2500/2524 13005KT P6SM SCT070 BKN120
      TEMPO 2500/2502 3SM -TSRA BR BKN035CB OVC050
     FM250500 08005KT P6SM SCT080
     FM251500 10009KT P6SM SCT120
     FM251700 11010G18KT P6SM VCSH BKN060
     FM251900 11012G18KT 5SM -SHRA BR SCT025 BKN040=



000
FTUS43 KDLH 242345
TAFHYR
TAF
KHYR 242345Z 2500/2524 32003KT P6SM FEW045
     FM250600 02003KT 5SM BR BKN012
      TEMPO 2508/2511 2SM BR OVC008
     FM251400 08005KT P6SM SCT015
     FM252000 10010KT P6SM VCSH BKN060
     FM252300 09011KT 5SM -SHRA BR SCT025 BKN040=



000
FTUS43 KDLH 242314 AAA
TAFBRD
TAF AMD
KBRD 242314Z 2423/2518 13006KT P6SM SCT060 SCT100
      TEMPO 2423/2502 3SM -TSRA BR BKN035CB OVC050
     FM250900 10012G18KT P6SM BKN028 OVC040
     FM251600 11014G23KT P6SM OVC017=



000
FTUS43 KDLH 242311 AAB
TAFINL
TAF AMD
KINL 242311Z 2423/2518 03012KT P6SM SCT050
     FM250200 09006KT P6SM SCT008 SCT070
     FM251100 10011KT P6SM SCT012 BKN150
     FM251600 12012G19KT P6SM SCT012 BKN035=



000
FTUS43 KDLH 241408 AAA
TAFHYR
TAF AMD
KHYR 241408Z 2414/2512 20006KT P6SM VCSH BKN018
      TEMPO 2415/2417 SHRA SCT018 OVC035
     FM241800 24008KT P6SM SCT040 BKN060
     FM250200 10008KT P6SM SCT005 BKN040
     FM250900 08010KT P6SM BKN022=



000
FTUS43 KDLH 241342 AAA
TAFBRD
TAF AMD
KBRD 241342Z 2414/2512 08005KT P6SM SCT050 SCT090
     FM241800 23007KT P6SM SCT050
     FM250000 10011KT P6SM SCT022 SCT100
     FM250900 10012G18KT P6SM BKN028 OVC040=



000
FTUS43 KDLH 241132
TAFDLH
TAF
KDLH 241132Z 2412/2512 VRB06KT 4SM BR VCTS SCT005 BKN040CB
      TEMPO 2412/2415 3/4SM -RA BKN002 BKN025
     FM242000 VRB06KT P6SM VCTS SCT025CB BKN070
     FM250300 08010KT 5SM BR SCT005 BKN015=



000
FTUS43 KDLH 241132
TAFHYR
TAF
KHYR 241132Z 2412/2512 VRB05KT P6SM VCTS SCT035CB BKN060
      TEMPO 2413/2416 2SM -RA BKN008
     FM241800 24008KT P6SM VCTS SCT025CB BKN050
     FM250200 10008KT P6SM SCT005 BKN040=



000
FTUS43 KDLH 241132
TAFINL
TAF
KINL 241132Z 2412/2512 VRB03KT P6SM BKN080
     FM241800 20010KT P6SM VCTS SCT025 OVC040CB
     FM242300 04005KT P6SM SCT008 SCT070=



000
FTUS43 KDLH 241132
TAFBRD
TAF
KBRD 241132Z 2412/2512 VRB05KT P6SM VCTS SCT025CB BKN060
      TEMPO 2412/2415 2SM -RA BKN004
     FM242000 24008KT P6SM VCTS BKN050CB
     FM250000 10011KT P6SM SCT008 BKN040=



000
FTUS43 KDLH 241102 AAD
TAFBRD
TAF AMD
KBRD 241102Z 2411/2506 18004KT 5SM BR VCTS SCT040CB
      TEMPO 2411/2414 2SM -TSRA BKN004 BKN015CB
     FM241400 24004KT P6SM SCT050
     FM241800 22007KT P6SM VCTS SCT035CB BKN070
     FM250100 12004KT P6SM SCT070=



000
FTUS43 KDLH 240932 AAB
TAFBRD
TAF AMD
KBRD 240932Z 2410/2506 18004KT 5SM BR VCTS SCT025CB SCT080
      TEMPO 2410/2414 2SM -RA BR BKN007
     FM241400 24004KT P6SM BKN070
     FM241800 22007KT P6SM VCTS SCT035CB BKN070
     FM250100 12004KT P6SM SCT070=



000
FTUS43 KDLH 240641 AAA
TAFHYR
TAF AMD
KHYR 240641Z 2407/2506 VRB05KT P6SM FEW010 SCT080
      TEMPO 2407/2409 1SM BR BKN005
     FM240900 VRB03KT 3SM BR BKN008
      TEMPO 2410/2413 1/2SM FG VV002
     FM241500 22005KT P6SM BKN015
     FM242000 24006KT P6SM VCTS SCT035CB BKN070
     FM250200 01004KT P6SM SCT070=



000
FTUS43 KDLH 240639 AAA
TAFBRD
TAF AMD
KBRD 240639Z 2407/2506 18004KT 5SM BR FEW005 SCT080
      TEMPO 2408/2412 1/2SM FG BKN005
     FM241400 24004KT P6SM BKN070
     FM241800 22007KT P6SM VCTS SCT035CB BKN070
     FM250100 12004KT P6SM SCT070=



000
FTUS43 KDLH 240638 AAA
TAFINL
TAF AMD
KINL 240638Z 2407/2506 VRB03KT 3SM BR FEW005 SCT060
      TEMPO 2407/2411 1/2SM FG OVC003
     FM241400 34006KT P6SM SCT070
     FM241800 02007KT P6SM VCTS SCT035CB BKN070
     FM242300 04005KT P6SM SCT070=



000
FTUS43 KDLH 240323 AAC
TAFHYR
TAF AMD
KHYR 240323Z 2403/2424 19006KT P6SM VCSH SCT060 BKN090
      TEMPO 2403/2405 5SM -TSRA SCT020 BKN035CB
     FM240700 VRB03KT 5SM BR BKN015 OVC070
      TEMPO 2409/2412 1SM BR
     FM241400 22005KT P6SM BKN025 OVC060
     FM241600 23004KT P6SM BKN060=



000
FTUS43 KDLH 240141 AAB
TAFDLH
TAF AMD
KDLH 240141Z 2402/2424 23008KT P6SM VCSH SCT040 OVC090
      TEMPO 2402/2404 5SM TSRA BKN035CB
     FM240600 24006KT 5SM BR VCSH SCT035 BKN070
      TEMPO 2409/2413 2SM -SHRA BR OVC025
     FM241300 32005KT P6SM BKN030
     FM241500 33007KT P6SM BKN070=



000
FTUS43 KDLH 240024 AAA
TAFHYR
TAF AMD
KHYR 240024Z 2400/2424 24006KT 5SM -SHRA BR SCT025 BKN050
      TEMPO 2400/2402 VRB25KT 2SM TSRA SCT015 BKN025CB
     FM240200 22006KT P6SM VCTS BKN040CB OVC060
     FM240400 18005KT P6SM VCSH BKN040 OVC080
     FM240700 VRB03KT 5SM BR BKN015 OVC070
      TEMPO 2409/2412 1SM BR
     FM241400 22005KT P6SM BKN025 OVC060
     FM241600 23004KT P6SM BKN060=



000
FTUS43 KDLH 232359 AAA
TAFDLH
TAF AMD
KDLH 232359Z 2400/2424 23015G20KT P6SM VCSH OVC090
      TEMPO 2401/2404 5SM TSRA BKN035CB
     FM240600 24006KT 5SM BR VCSH SCT035 BKN070
      TEMPO 2409/2413 2SM -SHRA BR OVC025
     FM241300 32005KT P6SM BKN030
     FM241500 33007KT P6SM BKN070=



000
FTUS43 KDLH 232116 AAA
TAFHYR
TAF AMD
KHYR 232116Z 2321/2418 20013G21KT P6SM BKN050
     FM232130 20012G18KT 6SM -TSRA SCT028 OVC035CB
      TEMPO 2322/2401 VRB25KT 2SM TSRA SCT015 BKN025CB
     FM240200 22012KT P6SM VCSH BKN040
     FM240500 VRB03KT 2SM BR SCT003
      TEMPO 2408/2412 1SM BR
     FM241300 15005KT P6SM BKN022=



000
FTUS43 KDLH 231832 AAA
TAFBRD
TAF AMD
KBRD 231832Z 2319/2418 23014KT P6SM BKN035
      TEMPO 2320/2323 5SM -TSRA OVC035CB
     FM240000 19008KT P6SM BKN050
     FM240400 21003KT P6SM SCT050
      TEMPO 2408/2412 2SM BR
     FM241500 17006KT P6SM BKN028=



000
FTUS43 KDLH 231407 AAA
TAFHYR
TAF AMD
KHYR 231407Z 2314/2412 16011KT P6SM SCT035 BKN250
     FM231500 18014G21KT P6SM SCT040 BKN250
     FM231900 19012G21KT P6SM BKN045 BKN150
      TEMPO 2320/2324 4SM TSRA SCT015 BKN030CB
     FM240000 19010G17KT P6SM VCTS BKN040CB
     FM240300 19003KT P6SM VCSH SCT030 BKN050
     FM240700 VRB03KT 2SM BR SCT003=



000
FTUS43 KDLH 231249 AAA
TAFDLH
TAF AMD
KDLH 231249Z 2313/2412 18013G21KT P6SM BKN150
     FM231700 20015G22KT P6SM VCSH BKN060
      TEMPO 2319/2323 5SM TSRA SCT020 BKN030CB
     FM232300 22010KT P6SM VCSH SCT025 BKN050
      TEMPO 2323/2401 6SM TSRA BKN025CB
     FM240700 25004KT 5SM BR SCT050
      TEMPO 2409/2412 1 1/2SM BR=



000
FTUS43 KDLH 231021 AAA
TAFHYR
TAF AMD
KHYR 231021Z 2310/2406 17007KT P6SM BKN200 WS015/19045KT
     FM231400 18015G22KT P6SM SCT070 BKN150
     FM232000 19012G21KT P6SM -TSRA BKN050CB
      TEMPO 2320/2324 4SM TSRA SCT010 BKN025CB
     FM240000 19010G17KT P6SM VCTS BKN040CB
     FM240300 19003KT P6SM VCSH SCT030 BKN050=



000
FTUS43 KDLH 230827 AAA
TAFBRD
TAF AMD
KBRD 230827Z 2308/2406 17012G20KT P6SM BKN150
     FM230900 17010G17KT P6SM VCSH BKN060
      TEMPO 2310/2312 5SM TSRA BR SCT020 BKN035CB
     FM231300 19013G23KT P6SM VCSH OVC035
     FM231800 19012G20KT 6SM -TSRA BKN040CB
     FM240300 21003KT P6SM -RA OVC050=



000
FTUS43 KDLH 230535
TAFDLH
TAF
KDLH 230535Z 2306/2406 12007KT P6SM SCT250
     FM231200 17013KT P6SM BKN250
     FM231400 18015G23KT P6SM VCSH SCT030 BKN060
     FM232100 21013G21KT 5SM -TSRA SCT025 BKN050CB
     FM240200 25008KT 6SM -RA OVC050=



000
FTUS43 KDLH 230535
TAFBRD
TAF
KBRD 230535Z 2306/2406 16012G20KT P6SM BKN150
     FM230900 17010KT P6SM VCSH BKN050
     FM231300 19013G23KT P6SM VCSH OVC035
     FM231800 19012G20KT 6SM -TSRA BKN040CB
     FM240300 21003KT P6SM -RA OVC050=



000
FTUS43 KDLH 230535
TAFINL
TAF
KINL 230535Z 2306/2406 16007KT P6SM BKN150
     FM231100 16008KT P6SM VCSH BKN050
     FM231500 21010G17KT 5SM -TSRA SCT025 BKN050CB
     FM232100 25009KT P6SM VCSH BKN050
     FM240100 25004KT P6SM SCT250=



000
FTUS43 KDLH 230535
TAFHYR
TAF
KHYR 230535Z 2306/2406 16007KT P6SM SKC
     FM231400 18014G23KT P6SM SCT035 SCT090
     FM232000 19017G25KT P6SM -TSRA OVC050CB
     FM240000 19011G18KT 5SM -TSRA BKN040CB=



000
FTUS43 KDLH 222329
TAFBRD
TAF
KBRD 222329Z 2300/2324 16009G18KT P6SM SKC
     FM230500 17013G21KT P6SM BKN060
     FM230900 17010KT P6SM VCSH BKN050 PROB30 2309/2312 -TSRA
      BKN029CB
     FM231300 19013G23KT P6SM VCSH OVC035
     FM231800 21008KT P6SM BKN100 PROB30 2320/2324 5SM -TSRA
      BKN050CB=



000
FTUS43 KDLH 222329
TAFHYR
TAF
KHYR 222329Z 2300/2324 18014G20KT P6SM SKC
     FM230100 18009KT P6SM BKN250
     FM231400 18015G23KT P6SM SCT035 BKN090
     FM232000 19017G25KT P6SM OVC050 PROB30 2320/2324 5SM -TSRA
      BKN035CB=



000
FTUS43 KDLH 222329
TAFINL
TAF
KINL 222329Z 2300/2324 18008G17KT P6SM FEW080
     FM230100 17008KT P6SM SCT040 BKN080
     FM230600 17006KT P6SM VCSH SCT040 BKN080
     FM231300 20011G21KT P6SM VCSH BKN025
     FM232100 28009KT P6SM BKN050=



000
FTUS43 KDLH 222329
TAFDLH
TAF
KDLH 222329Z 2300/2324 18011KT P6SM SKC
     FM231200 18009KT P6SM VCSH SCT030 BKN060
     FM231400 18015G23KT P6SM VCSH SCT030 BKN060
     FM232100 21013G21KT P6SM VCTS SCT025 BKN050CB=



    US Dept of Commerce
    National Oceanic and Atmospheric Administration
    National Weather Service
    1325 East West Highway
    Silver Spring, MD 20910
    Page Author: NWS Internet Services Team
Disclaimer
Information Quality
Credits
Glossary
Privacy Policy
Freedom of Information Act (FOIA)
About Us
Career Opportunities